sensor_id;sensor_type;location;lat;lon;timestamp;P1;durP1;ratioP1;P2;durP2;ratioP2
434;SDS011;204;48.942;9.256;2024-03-08T00:01:12;24.57;;;21.30;;
434;SDS011;204;48.942;9.256;2024-03-08T00:03:37;27.33;;;22.10;;
434;SDS011;204;48.942;9.256;2024-03-08T00:06:05;31.45;;;22.92;;
434;SDS011;204;48.942;9.256;2024-03-08T00:08:31;26.13;;;22.87;;
434;SDS011;204;48.942;9.256;2024-03-08T00:10:56;27.50;;;23.73;;
434;SDS011;204;48.942;9.256;2024-03-08T00:13:22;27.63;;;22.90;;
434;SDS011;204;48.942;9.256;2024-03-08T00:15:50;28.67;;;24.52;;
434;SDS011;204;48.942;9.256;2024-03-08T00:18:15;29.37;;;23.30;;
434;SDS011;204;48.942;9.256;2024-03-08T00:20:41;28.90;;;22.63;;
434;SDS011;204;48.942;9.256;2024-03-08T00:23:09;27.92;;;23.42;;
434;SDS011;204;48.942;9.256;2024-03-08T00:25:35;30.05;;;23.73;;
434;SDS011;204;48.942;9.256;2024-03-08T00:28:01;28.70;;;23.37;;
434;SDS011;204;48.942;9.256;2024-03-08T00:30:27;25.87;;;23.33;;
434;SDS011;204;48.942;9.256;2024-03-08T00:32:52;27.93;;;24.13;;
434;SDS011;204;48.942;9.256;2024-03-08T00:35:18;31.43;;;24.90;;
434;SDS011;204;48.942;9.256;2024-03-08T00:37:43;26.47;;;21.77;;
434;SDS011;204;48.942;9.256;2024-03-08T00:40:11;29.77;;;23.30;;
434;SDS011;204;48.942;9.256;2024-03-08T00:42:37;27.43;;;23.83;;
434;SDS011;204;48.942;9.256;2024-03-08T00:45:04;28.50;;;22.95;;
434;SDS011;204;48.942;9.256;2024-03-08T00:47:30;33.10;;;24.37;;
434;SDS011;204;48.942;9.256;2024-03-08T00:49:56;31.53;;;25.33;;
434;SDS011;204;48.942;9.256;2024-03-08T00:52:21;26.90;;;23.20;;
434;SDS011;204;48.942;9.256;2024-03-08T00:54:49;27.80;;;24.08;;
434;SDS011;204;48.942;9.256;2024-03-08T00:57:14;30.00;;;25.83;;
434;SDS011;204;48.942;9.256;2024-03-08T00:59:40;27.77;;;24.20;;
434;SDS011;204;48.942;9.256;2024-03-08T01:02:06;28.27;;;23.67;;
434;SDS011;204;48.942;9.256;2024-03-08T01:04:31;33.20;;;25.50;;
434;SDS011;204;48.942;9.256;2024-03-08T01:06:58;29.98;;;24.92;;
434;SDS011;204;48.942;9.256;2024-03-08T01:09:24;29.55;;;24.95;;
434;SDS011;204;48.942;9.256;2024-03-08T01:11:51;29.73;;;24.30;;
434;SDS011;204;48.942;9.256;2024-03-08T01:14:21;29.08;;;24.63;;
434;SDS011;204;48.942;9.256;2024-03-08T01:16:48;31.77;;;24.85;;
434;SDS011;204;48.942;9.256;2024-03-08T01:19:14;27.23;;;24.60;;
434;SDS011;204;48.942;9.256;2024-03-08T01:21:40;31.52;;;25.33;;
434;SDS011;204;48.942;9.256;2024-03-08T01:24:06;28.43;;;23.37;;
434;SDS011;204;48.942;9.256;2024-03-08T01:26:32;30.00;;;24.93;;
434;SDS011;204;48.942;9.256;2024-03-08T01:28:59;29.08;;;24.75;;
434;SDS011;204;48.942;9.256;2024-03-08T01:31:25;29.27;;;25.30;;
434;SDS011;204;48.942;9.256;2024-03-08T01:33:50;26.90;;;23.40;;
434;SDS011;204;48.942;9.256;2024-03-08T01:36:16;27.47;;;24.23;;
434;SDS011;204;48.942;9.256;2024-03-08T01:38:42;27.13;;;23.90;;
434;SDS011;204;48.942;9.256;2024-03-08T01:41:08;28.97;;;24.07;;
434;SDS011;204;48.942;9.256;2024-03-08T01:43:34;25.77;;;22.70;;
434;SDS011;204;48.942;9.256;2024-03-08T01:45:59;27.80;;;22.63;;
434;SDS011;204;48.942;9.256;2024-03-08T01:48:29;26.02;;;21.83;;
434;SDS011;204;48.942;9.256;2024-03-08T01:50:56;31.33;;;24.77;;
434;SDS011;204;48.942;9.256;2024-03-08T01:53:23;29.50;;;25.05;;
434;SDS011;204;48.942;9.256;2024-03-08T01:55:49;32.10;;;25.70;;
434;SDS011;204;48.942;9.256;2024-03-08T01:58:20;29.55;;;24.08;;
434;SDS011;204;48.942;9.256;2024-03-08T02:00:47;28.85;;;24.40;;
434;SDS011;204;48.942;9.256;2024-03-08T02:03:14;30.50;;;24.05;;
434;SDS011;204;48.942;9.256;2024-03-08T02:05:40;31.20;;;25.85;;
434;SDS011;204;48.942;9.256;2024-03-08T02:08:06;34.10;;;24.13;;
434;SDS011;204;48.942;9.256;2024-03-08T02:10:33;28.63;;;23.50;;
434;SDS011;204;48.942;9.256;2024-03-08T02:13:01;27.02;;;24.20;;
434;SDS011;204;48.942;9.256;2024-03-08T02:15:29;31.30;;;23.67;;
434;SDS011;204;48.942;9.256;2024-03-08T02:18:19;24.73;;;23.17;;
434;SDS011;204;48.942;9.256;2024-03-08T02:21:07;30.90;;;24.58;;
434;SDS011;204;48.942;9.256;2024-03-08T02:23:32;27.90;;;23.85;;
434;SDS011;204;48.942;9.256;2024-03-08T02:25:58;28.38;;;23.65;;
434;SDS011;204;48.942;9.256;2024-03-08T02:28:25;28.03;;;25.17;;
434;SDS011;204;48.942;9.256;2024-03-08T02:30:50;32.38;;;23.52;;
434;SDS011;204;48.942;9.256;2024-03-08T02:33:19;28.67;;;23.58;;
434;SDS011;204;48.942;9.256;2024-03-08T02:35:45;26.83;;;23.10;;
434;SDS011;204;48.942;9.256;2024-03-08T02:38:12;29.63;;;24.25;;
434;SDS011;204;48.942;9.256;2024-03-08T02:40:38;32.20;;;24.92;;
434;SDS011;204;48.942;9.256;2024-03-08T02:43:03;28.23;;;22.93;;
434;SDS011;204;48.942;9.256;2024-03-08T02:45:30;31.30;;;24.52;;
434;SDS011;204;48.942;9.256;2024-03-08T02:47:55;30.87;;;25.63;;
434;SDS011;204;48.942;9.256;2024-03-08T02:50:21;28.13;;;23.27;;
434;SDS011;204;48.942;9.256;2024-03-08T02:52:47;26.67;;;22.60;;
434;SDS011;204;48.942;9.256;2024-03-08T02:55:13;30.17;;;25.52;;
434;SDS011;204;48.942;9.256;2024-03-08T02:57:41;25.73;;;22.73;;
434;SDS011;204;48.942;9.256;2024-03-08T03:00:07;32.58;;;23.95;;
434;SDS011;204;48.942;9.256;2024-03-08T03:02:36;28.90;;;23.67;;
434;SDS011;204;48.942;9.256;2024-03-08T03:05:02;30.60;;;26.00;;
434;SDS011;204;48.942;9.256;2024-03-08T03:07:31;35.63;;;24.65;;
434;SDS011;204;48.942;9.256;2024-03-08T03:09:58;31.17;;;24.83;;
434;SDS011;204;48.942;9.256;2024-03-08T03:12:25;27.48;;;24.23;;
434;SDS011;204;48.942;9.256;2024-03-08T03:14:51;27.65;;;21.92;;
434;SDS011;204;48.942;9.256;2024-03-08T03:17:18;31.43;;;25.50;;
434;SDS011;204;48.942;9.256;2024-03-08T03:19:44;28.85;;;23.55;;
434;SDS011;204;48.942;9.256;2024-03-08T03:22:11;30.55;;;25.13;;
434;SDS011;204;48.942;9.256;2024-03-08T03:24:37;32.35;;;25.45;;
434;SDS011;204;48.942;9.256;2024-03-08T03:27:03;29.43;;;23.33;;
434;SDS011;204;48.942;9.256;2024-03-08T03:29:35;26.20;;;23.88;;
434;SDS011;204;48.942;9.256;2024-03-08T03:32:01;32.05;;;24.92;;
434;SDS011;204;48.942;9.256;2024-03-08T03:34:28;29.33;;;23.40;;
434;SDS011;204;48.942;9.256;2024-03-08T03:36:54;32.47;;;25.27;;
434;SDS011;204;48.942;9.256;2024-03-08T03:39:20;32.05;;;25.60;;
434;SDS011;204;48.942;9.256;2024-03-08T03:41:47;32.55;;;24.75;;
434;SDS011;204;48.942;9.256;2024-03-08T03:44:17;38.50;;;26.80;;
434;SDS011;204;48.942;9.256;2024-03-08T03:46:43;31.77;;;24.63;;
434;SDS011;204;48.942;9.256;2024-03-08T03:49:11;30.33;;;23.88;;
434;SDS011;204;48.942;9.256;2024-03-08T03:51:37;29.33;;;24.10;;
434;SDS011;204;48.942;9.256;2024-03-08T03:54:03;29.23;;;23.03;;
434;SDS011;204;48.942;9.256;2024-03-08T03:56:28;30.10;;;24.27;;
434;SDS011;204;48.942;9.256;2024-03-08T03:58:55;35.42;;;25.10;;
434;SDS011;204;48.942;9.256;2024-03-08T04:01:21;31.88;;;25.48;;
434;SDS011;204;48.942;9.256;2024-03-08T04:03:47;32.80;;;24.23;;
434;SDS011;204;48.942;9.256;2024-03-08T04:06:13;30.40;;;23.90;;
434;SDS011;204;48.942;9.256;2024-03-08T04:08:39;30.77;;;25.33;;
434;SDS011;204;48.942;9.256;2024-03-08T04:11:05;31.47;;;24.97;;
434;SDS011;204;48.942;9.256;2024-03-08T04:13:30;29.77;;;24.37;;
434;SDS011;204;48.942;9.256;2024-03-08T04:15:56;30.73;;;24.50;;
434;SDS011;204;48.942;9.256;2024-03-08T04:18:21;33.00;;;24.87;;
434;SDS011;204;48.942;9.256;2024-03-08T04:20:47;36.03;;;25.93;;
434;SDS011;204;48.942;9.256;2024-03-08T04:23:12;30.10;;;25.20;;
434;SDS011;204;48.942;9.256;2024-03-08T04:25:38;31.10;;;24.70;;
434;SDS011;204;48.942;9.256;2024-03-08T04:28:03;29.57;;;23.93;;
434;SDS011;204;48.942;9.256;2024-03-08T04:30:29;32.90;;;25.73;;
434;SDS011;204;48.942;9.256;2024-03-08T04:32:55;32.67;;;26.73;;
434;SDS011;204;48.942;9.256;2024-03-08T04:35:21;31.07;;;25.97;;
434;SDS011;204;48.942;9.256;2024-03-08T04:37:46;27.70;;;24.30;;
434;SDS011;204;48.942;9.256;2024-03-08T04:40:12;33.90;;;25.67;;
434;SDS011;204;48.942;9.256;2024-03-08T04:42:37;36.50;;;26.77;;
434;SDS011;204;48.942;9.256;2024-03-08T04:45:04;32.33;;;24.77;;
434;SDS011;204;48.942;9.256;2024-03-08T04:47:30;33.80;;;25.95;;
434;SDS011;204;48.942;9.256;2024-03-08T04:49:56;34.87;;;26.10;;
434;SDS011;204;48.942;9.256;2024-03-08T04:52:23;34.58;;;26.10;;
434;SDS011;204;48.942;9.256;2024-03-08T04:54:48;34.57;;;25.53;;
434;SDS011;204;48.942;9.256;2024-03-08T04:57:14;33.50;;;25.73;;
434;SDS011;204;48.942;9.256;2024-03-08T04:59:40;29.20;;;24.60;;
434;SDS011;204;48.942;9.256;2024-03-08T05:02:05;35.97;;;26.83;;
434;SDS011;204;48.942;9.256;2024-03-08T05:04:32;29.77;;;24.25;;
434;SDS011;204;48.942;9.256;2024-03-08T05:06:58;32.50;;;26.73;;
434;SDS011;204;48.942;9.256;2024-03-08T05:09:26;33.95;;;24.65;;
434;SDS011;204;48.942;9.256;2024-03-08T05:11:54;31.92;;;24.45;;
434;SDS011;204;48.942;9.256;2024-03-08T05:14:19;30.90;;;24.47;;
434;SDS011;204;48.942;9.256;2024-03-08T05:16:46;30.13;;;24.20;;
434;SDS011;204;48.942;9.256;2024-03-08T05:19:15;33.15;;;25.90;;
434;SDS011;204;48.942;9.256;2024-03-08T05:21:44;32.50;;;25.27;;
434;SDS011;204;48.942;9.256;2024-03-08T05:24:10;37.08;;;27.60;;
434;SDS011;204;48.942;9.256;2024-03-08T05:26:36;39.53;;;27.20;;
434;SDS011;204;48.942;9.256;2024-03-08T05:29:02;31.35;;;24.45;;
434;SDS011;204;48.942;9.256;2024-03-08T05:31:28;33.70;;;25.30;;
434;SDS011;204;48.942;9.256;2024-03-08T05:33:56;37.42;;;26.55;;
434;SDS011;204;48.942;9.256;2024-03-08T05:36:22;34.70;;;27.20;;
434;SDS011;204;48.942;9.256;2024-03-08T05:38:47;36.37;;;25.50;;
434;SDS011;204;48.942;9.256;2024-03-08T05:41:15;33.63;;;25.67;;
434;SDS011;204;48.942;9.256;2024-03-08T05:43:41;36.80;;;25.75;;
434;SDS011;204;48.942;9.256;2024-03-08T05:46:07;35.20;;;26.60;;
434;SDS011;204;48.942;9.256;2024-03-08T05:48:32;36.90;;;26.33;;
434;SDS011;204;48.942;9.256;2024-03-08T05:50:59;32.80;;;25.50;;
434;SDS011;204;48.942;9.256;2024-03-08T05:53:27;37.40;;;26.10;;
434;SDS011;204;48.942;9.256;2024-03-08T05:55:52;40.83;;;28.23;;
434;SDS011;204;48.942;9.256;2024-03-08T05:58:19;36.58;;;27.35;;
434;SDS011;204;48.942;9.256;2024-03-08T06:00:44;35.77;;;28.20;;
434;SDS011;204;48.942;9.256;2024-03-08T06:03:11;33.65;;;27.20;;
434;SDS011;204;48.942;9.256;2024-03-08T06:05:36;37.97;;;28.80;;
434;SDS011;204;48.942;9.256;2024-03-08T06:08:05;39.72;;;29.80;;
434;SDS011;204;48.942;9.256;2024-03-08T06:10:32;38.35;;;28.88;;
434;SDS011;204;48.942;9.256;2024-03-08T06:12:58;38.53;;;28.20;;
434;SDS011;204;48.942;9.256;2024-03-08T06:15:24;36.70;;;28.73;;
434;SDS011;204;48.942;9.256;2024-03-08T06:17:50;35.80;;;27.00;;
434;SDS011;204;48.942;9.256;2024-03-08T06:20:17;37.42;;;28.17;;
434;SDS011;204;48.942;9.256;2024-03-08T06:22:43;35.17;;;28.80;;
434;SDS011;204;48.942;9.256;2024-03-08T06:25:10;39.40;;;28.58;;
434;SDS011;204;48.942;9.256;2024-03-08T06:27:38;35.67;;;28.88;;
434;SDS011;204;48.942;9.256;2024-03-08T06:30:05;39.65;;;29.08;;
434;SDS011;204;48.942;9.256;2024-03-08T06:32:31;37.17;;;27.65;;
434;SDS011;204;48.942;9.256;2024-03-08T06:35:00;37.35;;;27.85;;
434;SDS011;204;48.942;9.256;2024-03-08T06:37:33;45.38;;;36.88;;
434;SDS011;204;48.942;9.256;2024-03-08T06:39:59;36.85;;;28.98;;
434;SDS011;204;48.942;9.256;2024-03-08T06:42:25;42.17;;;28.95;;
434;SDS011;204;48.942;9.256;2024-03-08T06:44:52;40.10;;;29.50;;
434;SDS011;204;48.942;9.256;2024-03-08T06:47:20;38.97;;;30.10;;
434;SDS011;204;48.942;9.256;2024-03-08T06:49:46;41.70;;;31.17;;
434;SDS011;204;48.942;9.256;2024-03-08T06:52:11;38.40;;;29.37;;
434;SDS011;204;48.942;9.256;2024-03-08T06:54:37;42.67;;;30.60;;
434;SDS011;204;48.942;9.256;2024-03-08T06:57:03;45.20;;;30.90;;
434;SDS011;204;48.942;9.256;2024-03-08T06:59:30;40.53;;;32.20;;
434;SDS011;204;48.942;9.256;2024-03-08T07:02:00;42.92;;;31.42;;
434;SDS011;204;48.942;9.256;2024-03-08T07:04:26;37.87;;;30.97;;
434;SDS011;204;48.942;9.256;2024-03-08T07:06:54;41.47;;;32.15;;
434;SDS011;204;48.942;9.256;2024-03-08T07:09:23;42.75;;;31.75;;
434;SDS011;204;48.942;9.256;2024-03-08T07:11:49;41.47;;;33.33;;
434;SDS011;204;48.942;9.256;2024-03-08T07:14:20;45.10;;;33.33;;
434;SDS011;204;48.942;9.256;2024-03-08T07:16:46;43.63;;;34.40;;
434;SDS011;204;48.942;9.256;2024-03-08T07:19:12;45.10;;;33.80;;
434;SDS011;204;48.942;9.256;2024-03-08T07:21:38;42.80;;;29.87;;
434;SDS011;204;48.942;9.256;2024-03-08T07:24:03;37.73;;;31.00;;
434;SDS011;204;48.942;9.256;2024-03-08T07:26:42;39.53;;;32.20;;
434;SDS011;204;48.942;9.256;2024-03-08T07:29:08;35.35;;;30.50;;
434;SDS011;204;48.942;9.256;2024-03-08T07:31:34;36.27;;;29.50;;
434;SDS011;204;48.942;9.256;2024-03-08T07:34:02;35.38;;;28.00;;
434;SDS011;204;48.942;9.256;2024-03-08T07:36:28;33.53;;;26.75;;
434;SDS011;204;48.942;9.256;2024-03-08T07:38:54;34.53;;;28.40;;
434;SDS011;204;48.942;9.256;2024-03-08T07:41:19;35.17;;;27.00;;
434;SDS011;204;48.942;9.256;2024-03-08T07:43:45;30.57;;;24.87;;
434;SDS011;204;48.942;9.256;2024-03-08T07:46:11;30.90;;;24.93;;
434;SDS011;204;48.942;9.256;2024-03-08T07:48:38;32.92;;;24.75;;
434;SDS011;204;48.942;9.256;2024-03-08T07:51:04;28.13;;;22.67;;
434;SDS011;204;48.942;9.256;2024-03-08T07:53:30;34.03;;;24.47;;
434;SDS011;204;48.942;9.256;2024-03-08T07:55:56;30.27;;;23.70;;
434;SDS011;204;48.942;9.256;2024-03-08T07:58:22;27.77;;;23.50;;
434;SDS011;204;48.942;9.256;2024-03-08T08:00:48;29.00;;;23.75;;
434;SDS011;204;48.942;9.256;2024-03-08T08:03:14;24.83;;;20.80;;
434;SDS011;204;48.942;9.256;2024-03-08T08:05:41;23.27;;;20.80;;
434;SDS011;204;48.942;9.256;2024-03-08T08:08:09;26.70;;;22.27;;
434;SDS011;204;48.942;9.256;2024-03-08T08:10:35;27.55;;;23.35;;
434;SDS011;204;48.942;9.256;2024-03-08T08:13:02;24.65;;;21.05;;
434;SDS011;204;48.942;9.256;2024-03-08T08:15:29;26.63;;;21.73;;
434;SDS011;204;48.942;9.256;2024-03-08T08:17:55;25.90;;;21.00;;
434;SDS011;204;48.942;9.256;2024-03-08T08:20:20;24.67;;;20.27;;
434;SDS011;204;48.942;9.256;2024-03-08T08:22:47;25.80;;;21.30;;
434;SDS011;204;48.942;9.256;2024-03-08T08:25:13;25.05;;;20.83;;
434;SDS011;204;48.942;9.256;2024-03-08T08:27:45;27.45;;;21.20;;
434;SDS011;204;48.942;9.256;2024-03-08T08:30:11;27.80;;;21.90;;
434;SDS011;204;48.942;9.256;2024-03-08T08:32:37;24.38;;;19.17;;
434;SDS011;204;48.942;9.256;2024-03-08T08:35:09;22.55;;;18.42;;
434;SDS011;204;48.942;9.256;2024-03-08T08:37:38;21.38;;;18.95;;
434;SDS011;204;48.942;9.256;2024-03-08T08:40:04;24.60;;;20.33;;
434;SDS011;204;48.942;9.256;2024-03-08T08:42:39;21.80;;;20.00;;
434;SDS011;204;48.942;9.256;2024-03-08T08:45:05;20.85;;;19.02;;
434;SDS011;204;48.942;9.256;2024-03-08T08:47:35;21.60;;;18.27;;
434;SDS011;204;48.942;9.256;2024-03-08T08:50:01;23.35;;;19.52;;
434;SDS011;204;48.942;9.256;2024-03-08T08:52:27;21.30;;;18.20;;
434;SDS011;204;48.942;9.256;2024-03-08T08:54:54;22.20;;;18.58;;
434;SDS011;204;48.942;9.256;2024-03-08T08:57:19;22.57;;;18.23;;
434;SDS011;204;48.942;9.256;2024-03-08T08:59:45;23.47;;;18.40;;
434;SDS011;204;48.942;9.256;2024-03-08T09:02:11;21.60;;;18.50;;
434;SDS011;204;48.942;9.256;2024-03-08T09:04:38;20.73;;;17.13;;
434;SDS011;204;48.942;9.256;2024-03-08T09:07:03;22.23;;;18.20;;
434;SDS011;204;48.942;9.256;2024-03-08T09:09:31;22.42;;;18.15;;
434;SDS011;204;48.942;9.256;2024-03-08T09:11:57;19.45;;;17.23;;
434;SDS011;204;48.942;9.256;2024-03-08T09:14:23;22.00;;;18.70;;
434;SDS011;204;48.942;9.256;2024-03-08T09:16:51;21.88;;;18.50;;
434;SDS011;204;48.942;9.256;2024-03-08T09:19:16;22.17;;;18.30;;
434;SDS011;204;48.942;9.256;2024-03-08T09:21:44;22.90;;;17.63;;
434;SDS011;204;48.942;9.256;2024-03-08T09:24:10;20.03;;;17.53;;
434;SDS011;204;48.942;9.256;2024-03-08T09:26:35;17.40;;;16.23;;
434;SDS011;204;48.942;9.256;2024-03-08T09:29:02;21.17;;;18.15;;
434;SDS011;204;48.942;9.256;2024-03-08T09:31:27;21.17;;;17.13;;
434;SDS011;204;48.942;9.256;2024-03-08T09:33:53;20.67;;;17.10;;
434;SDS011;204;48.942;9.256;2024-03-08T09:36:18;21.13;;;16.97;;
434;SDS011;204;48.942;9.256;2024-03-08T09:38:44;21.77;;;18.50;;
434;SDS011;204;48.942;9.256;2024-03-08T09:41:09;20.40;;;17.60;;
434;SDS011;204;48.942;9.256;2024-03-08T09:43:35;22.33;;;16.97;;
434;SDS011;204;48.942;9.256;2024-03-08T09:46:01;17.85;;;16.02;;
434;SDS011;204;48.942;9.256;2024-03-08T09:48:31;24.05;;;19.45;;
434;SDS011;204;48.942;9.256;2024-03-08T09:50:56;19.67;;;16.50;;
434;SDS011;204;48.942;9.256;2024-03-08T09:53:22;21.77;;;17.10;;
434;SDS011;204;48.942;9.256;2024-03-08T09:55:47;21.80;;;17.80;;
434;SDS011;204;48.942;9.256;2024-03-08T09:58:14;23.15;;;17.65;;
434;SDS011;204;48.942;9.256;2024-03-08T10:00:42;20.52;;;16.50;;
434;SDS011;204;48.942;9.256;2024-03-08T10:03:08;18.27;;;16.27;;
434;SDS011;204;48.942;9.256;2024-03-08T10:05:34;19.10;;;16.70;;
434;SDS011;204;48.942;9.256;2024-03-08T10:07:59;21.40;;;17.17;;
434;SDS011;204;48.942;9.256;2024-03-08T10:10:25;20.33;;;16.33;;
434;SDS011;204;48.942;9.256;2024-03-08T10:12:51;18.30;;;16.73;;
434;SDS011;204;48.942;9.256;2024-03-08T10:15:17;19.52;;;16.42;;
434;SDS011;204;48.942;9.256;2024-03-08T10:17:43;22.10;;;16.67;;
434;SDS011;204;48.942;9.256;2024-03-08T10:20:15;22.87;;;16.47;;
434;SDS011;204;48.942;9.256;2024-03-08T10:22:41;18.65;;;16.23;;
434;SDS011;204;48.942;9.256;2024-03-08T10:25:09;20.23;;;16.40;;
434;SDS011;204;48.942;9.256;2024-03-08T10:27:41;22.42;;;15.95;;
434;SDS011;204;48.942;9.256;2024-03-08T10:30:11;23.60;;;16.73;;
434;SDS011;204;48.942;9.256;2024-03-08T10:32:39;19.92;;;17.25;;
434;SDS011;204;48.942;9.256;2024-03-08T10:35:06;21.88;;;16.98;;
434;SDS011;204;48.942;9.256;2024-03-08T10:37:40;20.23;;;16.50;;
434;SDS011;204;48.942;9.256;2024-03-08T10:40:13;19.85;;;16.45;;
434;SDS011;204;48.942;9.256;2024-03-08T10:50:45;20.50;;;16.42;;
434;SDS011;204;48.942;9.256;2024-03-08T10:53:14;23.25;;;17.65;;
434;SDS011;204;48.942;9.256;2024-03-08T10:55:40;22.33;;;17.50;;
434;SDS011;204;48.942;9.256;2024-03-08T10:58:06;19.67;;;16.15;;
434;SDS011;204;48.942;9.256;2024-03-08T11:00:33;18.52;;;16.40;;
434;SDS011;204;48.942;9.256;2024-03-08T11:02:59;21.92;;;18.42;;
434;SDS011;204;48.942;9.256;2024-03-08T11:05:38;20.73;;;16.55;;
434;SDS011;204;48.942;9.256;2024-03-08T11:10:47;20.70;;;17.85;;
434;SDS011;204;48.942;9.256;2024-03-08T11:13:35;22.02;;;16.83;;
434;SDS011;204;48.942;9.256;2024-03-08T11:16:10;26.98;;;17.75;;
434;SDS011;204;48.942;9.256;2024-03-08T11:18:37;23.25;;;18.20;;
434;SDS011;204;48.942;9.256;2024-03-08T11:21:09;22.45;;;17.98;;
434;SDS011;204;48.942;9.256;2024-03-08T11:23:37;26.55;;;19.33;;
434;SDS011;204;48.942;9.256;2024-03-08T11:26:16;24.30;;;19.20;;
434;SDS011;204;48.942;9.256;2024-03-08T11:28:45;25.38;;;19.40;;
434;SDS011;204;48.942;9.256;2024-03-08T11:33:39;21.80;;;16.92;;
434;SDS011;204;48.942;9.256;2024-03-08T11:36:12;26.20;;;19.10;;
434;SDS011;204;48.942;9.256;2024-03-08T11:38:42;23.38;;;18.83;;
434;SDS011;204;48.942;9.256;2024-03-08T11:41:14;24.50;;;18.42;;
434;SDS011;204;48.942;9.256;2024-03-08T11:43:45;23.92;;;18.88;;
434;SDS011;204;48.942;9.256;2024-03-08T11:46:11;24.55;;;18.08;;
434;SDS011;204;48.942;9.256;2024-03-08T11:48:41;25.58;;;19.85;;
434;SDS011;204;48.942;9.256;2024-03-08T11:51:07;21.42;;;18.33;;
434;SDS011;204;48.942;9.256;2024-03-08T11:53:40;24.83;;;19.50;;
434;SDS011;204;48.942;9.256;2024-03-08T11:56:13;22.15;;;18.25;;
434;SDS011;204;48.942;9.256;2024-03-08T11:58:39;24.98;;;18.27;;
434;SDS011;204;48.942;9.256;2024-03-08T12:01:09;23.13;;;16.98;;
434;SDS011;204;48.942;9.256;2024-03-08T12:03:39;22.55;;;17.80;;
434;SDS011;204;48.942;9.256;2024-03-08T12:06:07;25.85;;;18.70;;
434;SDS011;204;48.942;9.256;2024-03-08T12:08:36;24.33;;;17.95;;
434;SDS011;204;48.942;9.256;2024-03-08T12:11:04;23.65;;;19.00;;
434;SDS011;204;48.942;9.256;2024-03-08T12:13:31;22.93;;;18.03;;
434;SDS011;204;48.942;9.256;2024-03-08T12:15:57;24.63;;;18.98;;
434;SDS011;204;48.942;9.256;2024-03-08T12:18:24;22.50;;;18.90;;
434;SDS011;204;48.942;9.256;2024-03-08T12:23:35;24.10;;;19.73;;
434;SDS011;204;48.942;9.256;2024-03-08T12:29:16;23.00;;;18.23;;
434;SDS011;204;48.942;9.256;2024-03-08T12:31:47;23.60;;;17.80;;
434;SDS011;204;48.942;9.256;2024-03-08T12:34:15;25.50;;;18.17;;
434;SDS011;204;48.942;9.256;2024-03-08T12:36:48;23.63;;;18.30;;
434;SDS011;204;48.942;9.256;2024-03-08T12:39:18;24.52;;;18.45;;
434;SDS011;204;48.942;9.256;2024-03-08T12:41:48;25.38;;;18.30;;
434;SDS011;204;48.942;9.256;2024-03-08T12:44:17;23.45;;;18.95;;
434;SDS011;204;48.942;9.256;2024-03-08T12:46:46;26.30;;;19.75;;
434;SDS011;204;48.942;9.256;2024-03-08T12:49:12;25.27;;;19.50;;
434;SDS011;204;48.942;9.256;2024-03-08T12:51:38;21.23;;;16.97;;
434;SDS011;204;48.942;9.256;2024-03-08T12:54:04;25.00;;;18.58;;
434;SDS011;204;48.942;9.256;2024-03-08T12:56:32;27.05;;;20.00;;
434;SDS011;204;48.942;9.256;2024-03-08T12:58:59;22.13;;;17.40;;
434;SDS011;204;48.942;9.256;2024-03-08T13:01:26;22.73;;;17.48;;
434;SDS011;204;48.942;9.256;2024-03-08T13:03:52;24.90;;;19.50;;
434;SDS011;204;48.942;9.256;2024-03-08T13:06:21;26.25;;;19.55;;
434;SDS011;204;48.942;9.256;2024-03-08T13:08:52;24.15;;;18.27;;
434;SDS011;204;48.942;9.256;2024-03-08T13:11:18;26.70;;;19.38;;
434;SDS011;204;48.942;9.256;2024-03-08T13:13:44;24.85;;;19.70;;
434;SDS011;204;48.942;9.256;2024-03-08T13:16:11;26.50;;;19.13;;
434;SDS011;204;48.942;9.256;2024-03-08T13:18:40;26.25;;;18.52;;
434;SDS011;204;48.942;9.256;2024-03-08T13:21:07;23.65;;;18.00;;
434;SDS011;204;48.942;9.256;2024-03-08T13:23:34;25.52;;;18.55;;
434;SDS011;204;48.942;9.256;2024-03-08T13:26:04;27.52;;;18.88;;
434;SDS011;204;48.942;9.256;2024-03-08T13:28:34;26.15;;;18.88;;
434;SDS011;204;48.942;9.256;2024-03-08T13:31:05;23.80;;;19.67;;
434;SDS011;204;48.942;9.256;2024-03-08T13:33:39;23.08;;;17.17;;
434;SDS011;204;48.942;9.256;2024-03-08T13:36:07;22.15;;;16.95;;
434;SDS011;204;48.942;9.256;2024-03-08T13:38:44;25.05;;;19.00;;
434;SDS011;204;48.942;9.256;2024-03-08T13:41:11;22.83;;;17.67;;
434;SDS011;204;48.942;9.256;2024-03-08T13:43:39;25.40;;;18.45;;
434;SDS011;204;48.942;9.256;2024-03-08T13:46:07;23.27;;;17.63;;
434;SDS011;204;48.942;9.256;2024-03-08T13:48:35;24.17;;;19.02;;
434;SDS011;204;48.942;9.256;2024-03-08T13:51:02;26.58;;;19.90;;
434;SDS011;204;48.942;9.256;2024-03-08T13:53:29;21.60;;;19.25;;
434;SDS011;204;48.942;9.256;2024-03-08T13:55:55;23.30;;;18.30;;
434;SDS011;204;48.942;9.256;2024-03-08T13:58:21;24.13;;;18.95;;
434;SDS011;204;48.942;9.256;2024-03-08T14:00:47;21.70;;;17.33;;
434;SDS011;204;48.942;9.256;2024-03-08T14:03:13;27.63;;;18.90;;
434;SDS011;204;48.942;9.256;2024-03-08T14:05:39;25.55;;;19.33;;
434;SDS011;204;48.942;9.256;2024-03-08T14:08:06;20.88;;;15.50;;
434;SDS011;204;48.942;9.256;2024-03-08T14:10:33;20.95;;;17.10;;
434;SDS011;204;48.942;9.256;2024-03-08T14:12:59;22.08;;;16.92;;
434;SDS011;204;48.942;9.256;2024-03-08T14:15:27;23.25;;;17.58;;
434;SDS011;204;48.942;9.256;2024-03-08T14:17:54;22.30;;;16.30;;
434;SDS011;204;48.942;9.256;2024-03-08T14:20:20;23.73;;;17.50;;
434;SDS011;204;48.942;9.256;2024-03-08T14:22:50;23.33;;;17.77;;
434;SDS011;204;48.942;9.256;2024-03-08T14:25:19;22.98;;;17.50;;
434;SDS011;204;48.942;9.256;2024-03-08T14:27:46;21.13;;;16.48;;
434;SDS011;204;48.942;9.256;2024-03-08T14:30:12;28.70;;;21.40;;
434;SDS011;204;48.942;9.256;2024-03-08T14:32:38;21.73;;;17.05;;
434;SDS011;204;48.942;9.256;2024-03-08T14:35:04;22.87;;;16.80;;
434;SDS011;204;48.942;9.256;2024-03-08T14:37:31;21.40;;;16.13;;
434;SDS011;204;48.942;9.256;2024-03-08T14:39:56;21.00;;;15.97;;
434;SDS011;204;48.942;9.256;2024-03-08T14:42:23;19.40;;;16.50;;
434;SDS011;204;48.942;9.256;2024-03-08T14:44:51;19.88;;;15.40;;
434;SDS011;204;48.942;9.256;2024-03-08T14:47:18;20.77;;;15.57;;
434;SDS011;204;48.942;9.256;2024-03-08T14:49:44;24.17;;;17.30;;
434;SDS011;204;48.942;9.256;2024-03-08T14:52:09;21.03;;;17.37;;
434;SDS011;204;48.942;9.256;2024-03-08T14:54:52;20.85;;;15.80;;
434;SDS011;204;48.942;9.256;2024-03-08T14:57:21;18.27;;;16.50;;
434;SDS011;204;48.942;9.256;2024-03-08T14:59:47;19.53;;;15.90;;
434;SDS011;204;48.942;9.256;2024-03-08T15:02:13;21.90;;;17.37;;
434;SDS011;204;48.942;9.256;2024-03-08T15:04:39;23.07;;;17.30;;
434;SDS011;204;48.942;9.256;2024-03-08T15:07:06;23.42;;;17.60;;
434;SDS011;204;48.942;9.256;2024-03-08T15:09:34;17.73;;;14.95;;
434;SDS011;204;48.942;9.256;2024-03-08T15:12:05;19.75;;;16.55;;
434;SDS011;204;48.942;9.256;2024-03-08T15:14:31;20.38;;;17.05;;
434;SDS011;204;48.942;9.256;2024-03-08T15:16:58;21.95;;;15.65;;
434;SDS011;204;48.942;9.256;2024-03-08T15:19:23;22.13;;;16.47;;
434;SDS011;204;48.942;9.256;2024-03-08T15:21:50;21.13;;;16.20;;
434;SDS011;204;48.942;9.256;2024-03-08T15:24:18;18.92;;;16.30;;
434;SDS011;204;48.942;9.256;2024-03-08T15:26:47;20.27;;;16.20;;
434;SDS011;204;48.942;9.256;2024-03-08T15:29:15;21.92;;;18.40;;
434;SDS011;204;48.942;9.256;2024-03-08T15:31:49;21.95;;;17.20;;
434;SDS011;204;48.942;9.256;2024-03-08T15:34:17;22.45;;;17.55;;